Martinique/Aimé Césaire International Airport

Airport
ICAO code: 
TFFF
IATA Code: 
FDF
Summary
ICAO Region: 
CARSAM
Territory: 
Location: 
Le Lamentin, Fort-de-France,
Serving: 
Martinique
Coordinates: 
Aerial View: 
14° 35' 28" N, 61° 0' 12" W
Metar
Observation
TFFF 192230Z AUTO 09010KT 9999 FEW026 SCT035 BKN048 24/21 Q1016
Station
Le Lamentin
Date/Time
2022-01-19 22:30:00
Wind direction
90°
Wind speed
10 kts
Lowest cloud amount
few clouds
Temperature
24°C
Dew point
21°C
Humidity
83%
QNH
1016 hPa
Weather condition
n/a

Description

Martinique Aimé Césaire International Airport is the international airport of Martinique in the French West Indies. Located in Le Lamentin, a suburb of the capital Fort-de-France.

Runways

Designator Length Width Surface Rops
9/27 3300 45 ASP Yes/Yes
Airport map: 
Aerial View: 

SKYbrary Partners:

Safety knowledge contributed by: